Huvudsida
METAR-TAF:

METAR-TAF

Flygplatser :

Aeraport Vitsebsk

Vitsebsk, Vitryssland

latitud: 55-10N, longitud: 030-13E, höjd: 176 m

Aktuellt väderrapport

Denna rapport gjordes för 36 minuter sedan, klockan 09:30 UTC
Vind 8 kt från väst i byarna ända upp till 14 kt
Temperatur 3°C
Fuktighet 70%
Tryck 1024 hPa
Sikt 10 km eller mer
Brutna moln på en höjd av 2600 ft

METAR: UMII 200930Z 27004G07MPS 9999 BKN026 03/M02 Q1024 R23/D NOSIG

Tid: 13:06 (10:06 UTC)

Väderprognos

Denna rapport gjordes för 2 timmar och 1 minuter sedan, klockan 08:05 UTC
Prognos gäller från 20 kl. 09 UTC till 20 kl. 18 UTC
Vind 8 kt från väst i byarna ända upp till 17 kt
Sikt 10 km eller mer
Brutna moln på en höjd av 1000 ft
Temporärt
från 20 kl. 09 UTC till 20 kl. 18 UTC
Sikt: 2000 m
Brutna moln på en höjd av 500 ft
Brutna moln på en höjd av 1200 ft, Cumulonimbus.
snöbyar, regn

TAF: UMII 200805Z 2009/2018 27004G09MPS 9999 BKN010 TEMPO 2009/2018 2000 SHSNRA BKN005 BKN012CB

Aktuella väderrapporter och prognoser från 4000 flygplatser (METAR- och TAF-rapporter).

De tillgängliga stationerna syns som gula och röda prickar på kartan.

För musen över prickarna för att se namnen på stationerna.

Klicka sedan för att få väderrapporter och prognoser.

För att ändra kartan: Klicka på de gröna knapparna med ett svart kors på för att zooma in; den gröna knappen med ett streck på för att zooma ut; eller på de gröna pilarna för angränsande kartor.


METAR-TAF: